Terminal Aerodrome Forecast
Issued by NWS Denver/Boulder, CO

Home | Current Version | Previous Version | Text Only | Print | Product List | Glossary On
Versions: 1 2 3 4 5 6 7 8 9 10 11 12 13 14 15 16 17 18 19 20 21 22 23 24 25 26 27 28 29 30 31 32 33 34 35 36 37 38 39 40 41 42 43 44 45 46 47 48 49 50
000
FTUS45 KBOU 011458 AAB
TAFDEN
TAF AMD
KDEN 011458Z 0115/0218 08008KT P6SM BKN020 OVC040
     FM011700 05007KT P6SM SCT020 BKN040
     FM011900 06008KT P6SM SCT040 BKN080
     FM020100 14007KT P6SM FEW060 SCT120 BKN200
     FM020600 18011KT P6SM SCT120 BKN200
     FM021000 21012KT P6SM SCT120 BKN200=

USA.gov is the U.S. government's official web portal to all federal, state and local government web resources and services.